Bloomingdale, NY (12913)

10:03 AM EDT on September 02, 2015 (GMT -0400)
catherine street | | Change Station
CLOSE
Current Station
Personal Weather Station
Location: Saranac Lake, NY
Elevation: 1611 ft
Nearby Weather Stations

Elev 1611 ft 44.33 °N, 74.13 °W | Updated 7 seconds ago

Overcast
Overcast
70.2 °F
Feels Like 71 °F
N
0.0
Wind Variable Wind from West
Gusts 0.0 mph

Today
High -- | Low -- °F
--% Chance of Precip.
Yesterday
High -- | Low -- °F
Precip. -- in
6:19 AM 7:31 PM
Waning Gibbous, 80% visible
Pressure 30.03 in
Visibility 5.0 miles
Clouds Overcast 700 ft
Heat Index 71 °F
Dew Point 64 °F
Humidity 80%
Rainfall 0.00 in
Snow Depth Not available.
UV 1 out of 12
Pollen 8.40 out of 12
Air Quality Not available.
Flu Activity Not available.
METAR KSLK 021351Z AUTO 22005KT 5SM BR OVC007 21/18 A3005 RMK AO2 SLP169 T02060183
Pressure 30.03 in
Visibility 5.0 miles
Clouds Overcast 700 ft
Heat Index 71 °F
Dew Point 64 °F
Humidity 80%
Rainfall 0.00 in
Snow Depth Not available.
UV 1 out of 12
Pollen 8.40 out of 12
Air Quality Not available.
Flu Activity Not available.
METAR KSLK 021351Z AUTO 22005KT 5SM BR OVC007 21/18 A3005 RMK AO2 SLP169 T02060183

10-Day Weather Forecast

×

Almanac

Astronomy

Sep. 02, 2015 Rise Set
Actual Time
Civil Twilight
Nautical Twilight
Astronomical Twilight
Moon
Length of Visible Light
Length of Day
Tomorrow will be .
, % of the Moon is Illuminated

Today's Extremes

State Highs State Lows

Community

WunderPhotos

Upload Photos

1,851,759 photos uploaded!

WunderBlogs® & News

Nearby

Air Quality

  Air Quality AQ Index Pollutant
Not available.

Snow Depth

Station Depth Elevation

Earthquake Activity

City Distance Mag. Time & Date
Minimum magnitude displayed is 2.5.

Coastal Water Temperatures

Place Temperature

Stations

Nearby Weather Stations

Station Location Temp. Windchill Dew Point Humidity Wind Precip. Elev Updated Type